createdAt,value
2022-10-04T00:03:08.663Z,1014.806
2022-10-04T00:23:07.407Z,1014.653
2022-10-04T00:43:08.138Z,1014.762
2022-10-04T01:03:08.761Z,1014.534
2022-10-04T01:23:07.615Z,1014.303
2022-10-04T01:43:07.499Z,1013.93
2022-10-04T02:03:08.188Z,1013.768
2022-10-04T02:23:08.012Z,1013.777
2022-10-04T02:43:07.890Z,1013.582
2022-10-04T03:03:08.726Z,1013.455
2022-10-04T03:23:07.367Z,1013.499
2022-10-04T03:43:07.544Z,1013.362
2022-10-04T04:03:08.580Z,1013.24
2022-10-04T04:23:07.262Z,1012.976
2022-10-04T04:43:07.275Z,1013.053
2022-10-04T05:03:08.071Z,1012.843
2022-10-04T05:23:07.804Z,1012.898
2022-10-04T05:43:07.611Z,1012.896
2022-10-04T06:03:08.493Z,1012.888
2022-10-04T06:23:07.245Z,1013.093
2022-10-04T06:43:08.036Z,1012.945
2022-10-04T07:03:08.759Z,1012.834
2022-10-04T07:23:07.581Z,1012.813
2022-10-04T07:43:07.464Z,1012.888
2022-10-04T08:03:08.701Z,1013.016
2022-10-04T08:23:07.440Z,1013.142
2022-10-04T08:43:07.163Z,1012.974
2022-10-04T09:03:09.193Z,1012.938
2022-10-04T09:23:08.056Z,1012.886
2022-10-04T09:43:07.892Z,1012.686
2022-10-04T10:03:16.549Z,1012.339
2022-10-04T10:23:07.312Z,1012.194
2022-10-04T10:43:07.237Z,1012.048
2022-10-04T11:03:24.612Z,1012.027
2022-10-04T11:23:07.190Z,1011.818
2022-10-04T11:43:08.080Z,1011.683
2022-10-04T12:03:09.227Z,1011.508
2022-10-04T12:23:07.221Z,1011.298
2022-10-04T12:43:08.121Z,1010.94
2022-10-04T13:03:08.971Z,1010.831
2022-10-04T13:23:07.870Z,1010.582
2022-10-04T13:43:07.855Z,1010.399
2022-10-04T14:03:08.934Z,1010.174
2022-10-04T14:23:07.894Z,1009.973
2022-10-04T14:43:07.876Z,1010.034
2022-10-04T15:03:08.758Z,1009.963
2022-10-04T15:23:07.545Z,1009.647
2022-10-04T15:43:07.507Z,1009.571
2022-10-04T16:03:08.506Z,1009.687
2022-10-04T16:23:07.268Z,1009.746
2022-10-04T16:43:07.371Z,1009.921
2022-10-04T17:03:08.237Z,1009.821
2022-10-04T17:23:08.055Z,1009.936
2022-10-04T17:43:08.080Z,1009.863
2022-10-04T18:03:09.426Z,1009.808
2022-10-04T18:23:07.247Z,1009.919
2022-10-04T18:43:07.240Z,1010.025
2022-10-04T19:03:08.211Z,1010.067
2022-10-04T19:23:08.181Z,1010.132
2022-10-04T19:43:07.134Z,1010.222
2022-10-04T20:03:09.087Z,1009.911
2022-10-04T20:23:07.922Z,1009.985
2022-10-04T20:43:11.548Z,1010.097
2022-10-04T21:03:08.547Z,1009.861
2022-10-04T21:23:07.344Z,1009.859
2022-10-04T21:43:07.446Z,1009.764
2022-10-04T22:03:08.754Z,1009.767
2022-10-04T22:23:07.465Z,1009.821
2022-10-04T22:43:08.103Z,1009.97
2022-10-04T23:03:09.088Z,1009.727
2022-10-04T23:23:07.864Z,1009.688
2022-10-04T23:43:07.842Z,1009.816
